createdAt,value
2023-03-10T00:00:00.529Z,3.50
2023-03-10T00:00:57.095Z,2.00
2023-03-10T00:01:53.682Z,5.93
2023-03-10T00:02:50.552Z,8.05
2023-03-10T00:03:47.409Z,4.60
2023-03-10T00:04:44.066Z,5.82
2023-03-10T00:05:40.816Z,3.33
2023-03-10T00:06:38.551Z,3.60
2023-03-10T00:07:35.196Z,4.40
2023-03-10T00:08:31.918Z,3.15
2023-03-10T00:09:28.489Z,2.78
2023-03-10T00:10:25.133Z,4.82
2023-03-10T00:11:22.520Z,4.15
2023-03-10T00:12:19.305Z,3.63
2023-03-10T00:13:15.886Z,4.80
2023-03-10T00:14:12.592Z,3.08
2023-03-10T00:15:10.145Z,4.50
2023-03-10T00:16:07.839Z,5.70
2023-03-10T00:17:05.135Z,7.53
2023-03-10T00:18:01.683Z,3.20
2023-03-10T00:18:58.431Z,6.30
2023-03-10T00:19:55.076Z,3.47
2023-03-10T00:20:53.544Z,3.25
2023-03-10T00:21:50.190Z,3.88
2023-03-10T00:22:46.953Z,4.65
2023-03-10T00:23:44.005Z,4.38
2023-03-10T00:24:40.651Z,2.83
2023-03-10T00:25:37.274Z,3.60
2023-03-10T00:26:34.025Z,5.22
2023-03-10T00:27:30.676Z,2.60
2023-03-10T00:28:28.139Z,3.40
2023-03-10T00:29:24.882Z,5.03
2023-03-10T00:30:21.582Z,4.93
2023-03-10T00:31:23.415Z,4.03
2023-03-10T00:32:20.227Z,5.00
2023-03-10T00:33:16.902Z,5.10
2023-03-10T00:34:13.557Z,6.93
2023-03-10T00:35:10.435Z,3.95
2023-03-10T00:36:13.564Z,4.20
2023-03-10T00:37:10.303Z,7.40
2023-03-10T00:38:07.033Z,3.70
2023-03-10T00:39:05.363Z,4.72
2023-03-10T00:40:02.122Z,3.83
2023-03-10T00:41:00.496Z,5.10
2023-03-10T00:41:57.173Z,4.20
2023-03-10T00:42:55.124Z,4.63
2023-03-10T00:43:52.801Z,3.30
2023-03-10T00:44:49.467Z,4.72
2023-03-10T00:45:46.060Z,3.05
2023-03-10T00:46:42.856Z,4.15
2023-03-10T00:47:39.574Z,4.68
2023-03-10T00:48:36.354Z,5.80
2023-03-10T00:49:32.945Z,5.85
2023-03-10T00:50:29.557Z,4.07
2023-03-10T00:51:26.128Z,3.67
2023-03-10T00:52:22.723Z,3.92
2023-03-10T00:53:19.665Z,3.63
2023-03-10T00:54:16.278Z,7.50
2023-03-10T00:55:13.057Z,8.00
2023-03-10T00:56:25.008Z,4.55
2023-03-10T00:57:21.660Z,6.90
2023-03-10T00:58:18.386Z,5.38
2023-03-10T00:59:15.052Z,5.20
2023-03-10T01:00:14.907Z,4.82
2023-03-10T01:01:18.500Z,4.32
2023-03-10T01:02:15.140Z,5.63
2023-03-10T01:03:11.762Z,6.78
2023-03-10T01:04:12.897Z,5.88
2023-03-10T01:05:11.118Z,8.00
2023-03-10T01:06:07.824Z,6.68
2023-03-10T01:07:04.385Z,4.75
2023-03-10T01:08:00.935Z,7.50
2023-03-10T01:08:57.640Z,4.30
2023-03-10T01:09:54.239Z,5.35
2023-03-10T01:10:51.655Z,3.72
2023-03-10T01:11:49.178Z,8.15
2023-03-10T01:12:45.837Z,6.80
2023-03-10T01:13:43.296Z,5.13
2023-03-10T01:14:40.016Z,6.65
2023-03-10T01:15:36.592Z,4.90
2023-03-10T01:16:33.785Z,6.90
2023-03-10T01:17:30.454Z,4.18
2023-03-10T01:18:27.173Z,5.43
2023-03-10T01:19:23.796Z,3.53
2023-03-10T01:20:20.553Z,5.93
2023-03-10T01:21:23.816Z,3.83
2023-03-10T01:22:20.495Z,4.80
2023-03-10T01:23:23.494Z,8.95
2023-03-10T01:24:20.276Z,4.60
2023-03-10T01:25:16.926Z,8.13
2023-03-10T01:26:13.729Z,7.05
2023-03-10T01:27:10.350Z,8.90
2023-03-10T01:28:07.020Z,7.15
2023-03-10T01:29:03.739Z,5.93
2023-03-10T01:30:00.347Z,5.75
2023-03-10T01:30:57.030Z,6.55
2023-03-10T01:31:53.756Z,3.92
2023-03-10T01:32:50.476Z,4.82
2023-03-10T01:33:48.058Z,4.63
2023-03-10T01:34:44.868Z,5.43
2023-03-10T01:35:42.109Z,5.85
2023-03-10T01:36:41.696Z,8.27
2023-03-10T01:37:38.360Z,5.25
2023-03-10T01:38:35.562Z,7.38
2023-03-10T01:39:32.247Z,5.97
2023-03-10T01:40:29.604Z,7.05
2023-03-10T01:41:26.609Z,4.80
2023-03-10T01:42:23.484Z,6.13
2023-03-10T01:43:19.989Z,6.15
2023-03-10T01:44:20.132Z,7.35
2023-03-10T01:45:16.715Z,8.52
2023-03-10T01:46:31.652Z,5.40
2023-03-10T01:47:28.868Z,4.22
2023-03-10T01:48:25.519Z,5.97
2023-03-10T01:49:32.520Z,5.68
2023-03-10T01:50:29.371Z,6.13
2023-03-10T01:51:26.732Z,6.10
2023-03-10T01:52:26.855Z,4.10
2023-03-10T01:53:25.685Z,4.13
2023-03-10T01:54:28.881Z,5.35
2023-03-10T01:55:30.228Z,7.85
2023-03-10T01:56:27.025Z,7.13
2023-03-10T01:57:29.844Z,6.95
2023-03-10T01:58:32.660Z,6.55
2023-03-10T01:59:30.071Z,10.05
2023-03-10T02:00:29.534Z,6.50
2023-03-10T02:01:26.286Z,6.88
2023-03-10T02:02:24.840Z,7.38
2023-03-10T02:03:41.004Z,5.53
2023-03-10T02:04:44.457Z,5.38
2023-03-10T02:06:09.701Z,5.85
2023-03-10T02:07:06.982Z,5.90
2023-03-10T02:08:04.657Z,5.88
2023-03-10T02:09:04.130Z,3.63
2023-03-10T02:10:00.935Z,7.13
2023-03-10T02:10:59.481Z,2.92
2023-03-10T02:11:58.629Z,5.60
2023-03-10T02:12:55.357Z,6.93
2023-03-10T02:13:53.124Z,3.10
2023-03-10T02:14:52.687Z,3.22
2023-03-10T02:15:51.127Z,7.13
2023-03-10T02:16:47.857Z,4.95
2023-03-10T02:17:44.925Z,6.57
2023-03-10T02:18:44.257Z,3.47
2023-03-10T02:19:58.240Z,6.20
2023-03-10T02:21:13.643Z,6.95
2023-03-10T02:22:12.473Z,4.35
2023-03-10T02:23:12.570Z,4.82
2023-03-10T02:24:32.036Z,5.85
2023-03-10T02:25:49.102Z,4.97
2023-03-10T02:27:01.532Z,6.05
2023-03-10T02:27:58.869Z,6.53
2023-03-10T02:28:58.339Z,8.07
2023-03-10T02:30:01.217Z,8.48
2023-03-10T02:30:58.375Z,6.97
2023-03-10T02:31:57.138Z,4.75
2023-03-10T02:32:57.876Z,4.80
2023-03-10T02:33:55.597Z,3.10
2023-03-10T02:34:52.236Z,9.18
2023-03-10T02:35:49.374Z,7.85
2023-03-10T02:36:46.231Z,4.97
2023-03-10T02:37:42.920Z,4.07
2023-03-10T02:38:39.481Z,5.10
2023-03-10T02:39:36.100Z,2.33
2023-03-10T02:40:45.161Z,7.72
2023-03-10T02:41:44.997Z,5.55
2023-03-10T02:42:42.046Z,8.15
2023-03-10T02:43:38.682Z,5.13
2023-03-10T02:44:35.854Z,6.68
2023-03-10T02:45:35.852Z,8.18
2023-03-10T02:46:32.647Z,6.30
2023-03-10T02:47:29.402Z,4.68
2023-03-10T02:48:33.311Z,7.15
2023-03-10T02:49:30.394Z,5.40
2023-03-10T02:50:30.175Z,7.35
2023-03-10T02:51:31.020Z,5.78
2023-03-10T02:53:01.907Z,3.47
2023-03-10T02:54:00.384Z,6.03
2023-03-10T02:54:57.498Z,3.17
2023-03-10T02:55:55.080Z,8.25
2023-03-10T02:56:51.748Z,3.28
2023-03-10T02:57:49.039Z,5.07
2023-03-10T02:58:45.612Z,6.63
2023-03-10T02:59:42.338Z,7.57
2023-03-10T03:00:45.261Z,6.78
2023-03-10T03:01:41.936Z,10.05
2023-03-10T03:02:39.053Z,10.68
2023-03-10T03:03:35.823Z,7.65
2023-03-10T03:04:32.951Z,7.25
2023-03-10T03:05:29.824Z,6.80
2023-03-10T03:06:27.154Z,5.70
2023-03-10T03:07:23.719Z,7.13
2023-03-10T03:08:21.124Z,7.50
2023-03-10T03:09:17.725Z,7.45
2023-03-10T03:10:14.287Z,9.82
2023-03-10T03:11:11.070Z,7.65
2023-03-10T03:12:08.230Z,9.10
2023-03-10T03:13:05.651Z,7.10
2023-03-10T03:14:02.250Z,9.57
2023-03-10T03:14:58.857Z,8.95
2023-03-10T03:15:55.489Z,7.53
2023-03-10T03:16:52.089Z,7.05
2023-03-10T03:17:48.931Z,6.43
2023-03-10T03:18:45.614Z,10.45
2023-03-10T03:19:42.204Z,8.45
2023-03-10T03:20:41.026Z,10.23
2023-03-10T03:21:37.834Z,8.63
2023-03-10T03:22:34.516Z,10.07
2023-03-10T03:23:31.054Z,12.23
2023-03-10T03:24:27.972Z,10.40
2023-03-10T03:25:26.673Z,11.95
2023-03-10T03:26:25.302Z,11.77
2023-03-10T03:27:21.885Z,9.23
2023-03-10T03:28:18.583Z,9.13
2023-03-10T03:29:15.359Z,9.30
2023-03-10T03:30:16.094Z,10.30
2023-03-10T03:31:22.342Z,8.60
2023-03-10T03:32:19.022Z,9.90
2023-03-10T03:33:15.661Z,9.77
2023-03-10T03:34:12.495Z,12.18
2023-03-10T03:35:15.946Z,11.68
2023-03-10T03:36:13.605Z,11.43
2023-03-10T03:37:10.224Z,11.35
2023-03-10T03:38:07.387Z,8.95
2023-03-10T03:39:07.111Z,12.95
2023-03-10T03:40:12.834Z,7.28
2023-03-10T03:41:10.265Z,7.55
2023-03-10T03:42:07.379Z,9.15
2023-03-10T03:43:05.008Z,8.55
2023-03-10T03:44:01.599Z,8.45
2023-03-10T03:44:58.188Z,6.13
2023-03-10T03:45:54.923Z,9.57
2023-03-10T03:46:51.565Z,10.93
2023-03-10T03:47:48.479Z,7.50
2023-03-10T03:48:45.095Z,7.95
2023-03-10T03:49:41.880Z,9.02
2023-03-10T03:50:38.463Z,12.13
2023-03-10T03:51:36.622Z,6.55
2023-03-10T03:52:33.752Z,5.53
2023-03-10T03:53:30.740Z,10.95
2023-03-10T03:54:27.289Z,7.32
2023-03-10T03:55:23.867Z,9.68
2023-03-10T03:56:20.454Z,9.23
2023-03-10T03:57:17.088Z,7.10
2023-03-10T03:58:13.639Z,5.97
2023-03-10T03:59:10.331Z,5.40
2023-03-10T04:00:09.177Z,7.03
2023-03-10T04:01:05.866Z,5.90
2023-03-10T04:02:02.668Z,5.82
2023-03-10T04:02:59.311Z,7.65
2023-03-10T04:03:56.023Z,7.60
2023-03-10T04:04:55.815Z,8.23
2023-03-10T04:05:52.815Z,6.78
2023-03-10T04:06:49.349Z,10.60
2023-03-10T04:07:48.326Z,6.07
2023-03-10T04:08:45.022Z,6.65
2023-03-10T04:09:43.059Z,9.07
2023-03-10T04:10:39.609Z,6.13
2023-03-10T04:11:36.754Z,9.52
2023-03-10T04:12:33.593Z,7.35
2023-03-10T04:13:30.189Z,9.45
2023-03-10T04:14:26.871Z,7.20
2023-03-10T04:15:23.786Z,6.25
2023-03-10T04:16:20.648Z,5.07
2023-03-10T04:17:17.445Z,4.05
2023-03-10T04:18:14.091Z,5.78
2023-03-10T04:19:10.726Z,6.72
2023-03-10T04:20:10.032Z,4.68
2023-03-10T04:21:06.684Z,4.68
2023-03-10T04:22:03.457Z,4.38
2023-03-10T04:23:02.116Z,5.18
2023-03-10T04:23:58.741Z,5.88
2023-03-10T04:24:55.438Z,7.78
2023-03-10T04:25:52.190Z,3.90
2023-03-10T04:26:48.917Z,10.02
2023-03-10T04:27:45.556Z,8.73
2023-03-10T04:28:42.193Z,5.32
2023-03-10T04:29:39.141Z,5.38
2023-03-10T04:30:35.746Z,7.07
2023-03-10T04:31:32.470Z,7.80
2023-03-10T04:32:29.182Z,6.20
2023-03-10T04:33:25.881Z,9.95
2023-03-10T04:34:22.507Z,3.70
2023-03-10T04:35:19.196Z,5.32
2023-03-10T04:36:16.770Z,8.52
2023-03-10T04:37:13.516Z,6.22
2023-03-10T04:38:10.412Z,6.47
2023-03-10T04:39:07.158Z,6.10
2023-03-10T04:40:08.397Z,5.50
2023-03-10T04:41:05.289Z,5.88
2023-03-10T04:42:01.948Z,4.78
2023-03-10T04:42:58.531Z,6.45
2023-03-10T04:43:55.077Z,7.38
2023-03-10T04:44:52.382Z,7.25
2023-03-10T04:45:49.248Z,8.48
2023-03-10T04:46:45.891Z,4.57
2023-03-10T04:47:42.656Z,5.75
2023-03-10T04:48:39.964Z,6.00
2023-03-10T04:49:37.388Z,7.85
2023-03-10T04:50:33.980Z,5.72
2023-03-10T04:51:30.675Z,8.95
2023-03-10T04:52:27.300Z,5.20
2023-03-10T04:53:24.033Z,9.52
2023-03-10T04:54:20.662Z,5.82
2023-03-10T04:55:17.612Z,7.93
2023-03-10T04:56:14.470Z,11.75
2023-03-10T04:57:11.034Z,5.75
2023-03-10T04:58:07.661Z,10.45
2023-03-10T04:59:04.357Z,7.75
2023-03-10T05:00:02.869Z,7.55
2023-03-10T05:01:03.576Z,7.43
2023-03-10T05:02:00.597Z,6.97
2023-03-10T05:02:57.357Z,5.90
2023-03-10T05:03:54.503Z,7.82
2023-03-10T05:04:51.308Z,8.57
2023-03-10T05:05:47.959Z,6.70
2023-03-10T05:06:44.552Z,5.25
2023-03-10T05:07:41.394Z,3.83
2023-03-10T05:08:37.962Z,7.10
2023-03-10T05:09:36.940Z,7.80
2023-03-10T05:10:33.643Z,7.75
2023-03-10T05:11:31.033Z,5.63
2023-03-10T05:12:27.766Z,12.43
2023-03-10T05:13:24.435Z,7.90
2023-03-10T05:14:21.211Z,5.65
2023-03-10T05:15:17.844Z,7.28
2023-03-10T05:16:20.949Z,6.97
2023-03-10T05:17:17.639Z,5.72
2023-03-10T05:18:14.418Z,5.75
2023-03-10T05:19:11.100Z,4.38
2023-03-10T05:20:09.693Z,5.32
2023-03-10T05:21:06.345Z,5.82
2023-03-10T05:22:04.856Z,6.88
2023-03-10T05:23:02.174Z,7.20
2023-03-10T05:23:58.837Z,3.80
2023-03-10T05:24:55.484Z,10.82
2023-03-10T05:25:52.120Z,7.13
2023-03-10T05:26:48.780Z,7.50
2023-03-10T05:27:45.366Z,4.43
2023-03-10T05:28:42.124Z,5.63
2023-03-10T05:29:39.665Z,7.30
2023-03-10T05:30:36.351Z,13.55
2023-03-10T05:31:33.068Z,18.92
2023-03-10T05:32:29.749Z,18.20
2023-03-10T05:33:26.457Z,18.60
2023-03-10T05:34:25.411Z,17.40
2023-03-10T05:35:22.016Z,14.35
2023-03-10T05:36:18.837Z,14.40
2023-03-10T05:37:15.506Z,15.77
2023-03-10T05:38:12.117Z,12.98
2023-03-10T05:39:09.567Z,11.00
2023-03-10T05:40:13.660Z,9.23
2023-03-10T05:41:11.179Z,10.38
2023-03-10T05:42:07.853Z,9.82
2023-03-10T05:43:04.436Z,7.10
2023-03-10T05:44:01.146Z,7.80
2023-03-10T05:44:57.716Z,5.97
2023-03-10T05:45:58.930Z,7.28
2023-03-10T05:46:55.665Z,6.13
2023-03-10T05:47:52.287Z,6.90
2023-03-10T05:48:49.096Z,5.93
2023-03-10T05:49:45.935Z,6.10
2023-03-10T05:50:42.465Z,7.78
2023-03-10T05:51:39.218Z,5.00
2023-03-10T05:52:40.496Z,7.32
2023-03-10T05:53:38.048Z,9.15
2023-03-10T05:54:34.686Z,6.25
2023-03-10T05:55:31.336Z,6.07
2023-03-10T05:56:28.064Z,6.28
2023-03-10T05:57:24.692Z,8.55
2023-03-10T05:58:21.790Z,6.15
2023-03-10T05:59:18.480Z,3.70
2023-03-10T06:00:16.024Z,3.72
2023-03-10T06:01:13.299Z,8.45
2023-03-10T06:02:10.070Z,4.88
2023-03-10T06:03:06.751Z,4.40
2023-03-10T06:04:03.975Z,6.30
2023-03-10T06:05:00.655Z,6.63
2023-03-10T06:05:58.391Z,21.80
2023-03-10T06:06:56.227Z,30.23
2023-03-10T06:07:52.926Z,30.80
2023-03-10T06:08:49.798Z,32.65
2023-03-10T06:09:46.542Z,30.67
2023-03-10T06:10:43.196Z,38.33
2023-03-10T06:11:39.802Z,29.60
2023-03-10T06:12:36.703Z,29.73
2023-03-10T06:13:33.475Z,25.42
2023-03-10T06:14:30.070Z,27.10
2023-03-10T06:15:26.918Z,20.70
2023-03-10T06:16:23.550Z,13.43
2023-03-10T06:17:20.172Z,10.50
2023-03-10T06:18:17.654Z,7.03
2023-03-10T06:19:14.220Z,10.23
2023-03-10T06:20:10.951Z,7.95
2023-03-10T06:21:10.477Z,7.45
2023-03-10T06:22:07.175Z,5.28
2023-03-10T06:23:03.775Z,8.60
2023-03-10T06:24:00.671Z,6.88
2023-03-10T06:24:57.332Z,7.80
2023-03-10T06:26:03.085Z,7.35
2023-03-10T06:26:59.656Z,7.47
2023-03-10T06:27:56.210Z,6.30
2023-03-10T06:28:52.881Z,6.68
2023-03-10T06:29:50.417Z,5.40
2023-03-10T06:30:54.935Z,7.75
2023-03-10T06:31:51.733Z,7.40
2023-03-10T06:32:48.435Z,7.25
2023-03-10T06:33:45.142Z,5.53
2023-03-10T06:34:41.817Z,11.23
2023-03-10T06:35:38.413Z,3.25
2023-03-10T06:36:37.391Z,9.27
2023-03-10T06:37:34.131Z,6.78
2023-03-10T06:38:30.821Z,7.97
2023-03-10T06:39:29.133Z,5.97
2023-03-10T06:40:26.130Z,5.07
2023-03-10T06:41:22.767Z,9.43
2023-03-10T06:42:19.495Z,7.68
2023-03-10T06:43:16.234Z,4.93
2023-03-10T06:44:18.813Z,7.82
2023-03-10T06:45:17.223Z,6.13
2023-03-10T06:46:15.306Z,6.75
2023-03-10T06:47:11.881Z,7.75
2023-03-10T06:48:08.677Z,5.57
2023-03-10T06:49:05.261Z,7.80
2023-03-10T06:50:02.968Z,10.88
2023-03-10T06:50:59.660Z,6.60
2023-03-10T06:51:56.404Z,5.25
2023-03-10T06:52:53.374Z,11.50
2023-03-10T06:53:50.126Z,7.78
2023-03-10T06:54:46.746Z,10.30
2023-03-10T06:55:43.559Z,7.95
2023-03-10T06:56:40.176Z,7.15
2023-03-10T06:57:37.941Z,7.38
2023-03-10T06:58:36.356Z,8.52
2023-03-10T06:59:33.040Z,9.85
2023-03-10T07:00:29.899Z,8.82
2023-03-10T07:01:32.075Z,9.98
2023-03-10T07:02:28.745Z,6.60
2023-03-10T07:03:26.418Z,8.65
2023-03-10T07:04:23.060Z,7.60
2023-03-10T07:05:19.801Z,9.05
2023-03-10T07:06:16.531Z,10.52
2023-03-10T07:07:14.822Z,14.20
2023-03-10T07:08:11.530Z,9.73
2023-03-10T07:09:08.166Z,10.90
2023-03-10T07:10:08.156Z,7.45
2023-03-10T07:11:05.149Z,8.82
2023-03-10T07:12:01.906Z,13.20
2023-03-10T07:12:59.122Z,6.22
2023-03-10T07:13:55.811Z,6.35
2023-03-10T07:14:52.539Z,7.55
2023-03-10T07:15:49.242Z,7.45
2023-03-10T07:16:46.759Z,8.48
2023-03-10T07:17:43.511Z,5.90
2023-03-10T07:18:40.552Z,5.63
2023-03-10T07:19:37.526Z,6.65
2023-03-10T07:20:34.214Z,6.22
2023-03-10T07:21:31.723Z,6.28
2023-03-10T07:22:28.336Z,6.65
2023-03-10T07:23:25.676Z,8.05
2023-03-10T07:24:22.573Z,6.32
2023-03-10T07:25:19.555Z,6.35
2023-03-10T07:26:18.750Z,7.20
2023-03-10T07:27:15.474Z,8.68
2023-03-10T07:28:12.232Z,8.60
2023-03-10T07:29:09.198Z,7.60
2023-03-10T07:30:06.703Z,4.25
2023-03-10T07:31:05.119Z,7.07
2023-03-10T07:32:01.791Z,7.25
2023-03-10T07:32:58.382Z,5.35
2023-03-10T07:33:55.078Z,5.85
2023-03-10T07:34:52.086Z,10.18
2023-03-10T07:35:48.819Z,7.72
2023-03-10T07:36:45.598Z,7.15
2023-03-10T07:37:42.300Z,4.05
2023-03-10T07:38:39.173Z,11.05
2023-03-10T07:39:35.713Z,6.07
2023-03-10T07:40:32.429Z,8.00
2023-03-10T07:41:29.061Z,4.40
2023-03-10T07:42:25.694Z,7.07
2023-03-10T07:43:22.286Z,7.75
2023-03-10T07:44:19.057Z,9.63
2023-03-10T07:45:15.699Z,13.70
2023-03-10T07:46:14.649Z,5.60
2023-03-10T07:47:11.413Z,6.75
2023-03-10T07:48:08.057Z,5.40
2023-03-10T07:49:05.039Z,3.15
2023-03-10T07:50:01.990Z,6.95
2023-03-10T07:50:59.333Z,5.13
2023-03-10T07:51:56.119Z,5.63
2023-03-10T07:52:53.084Z,3.38
2023-03-10T07:53:49.862Z,4.75
2023-03-10T07:54:47.003Z,8.80
2023-03-10T07:55:43.794Z,5.07
2023-03-10T07:56:40.378Z,3.53
2023-03-10T07:57:37.113Z,4.47
2023-03-10T07:58:34.476Z,6.10
2023-03-10T07:59:31.205Z,5.57
2023-03-10T08:00:28.389Z,3.40
2023-03-10T08:01:25.235Z,6.47
2023-03-10T08:02:21.864Z,3.90
2023-03-10T08:03:18.617Z,3.70
2023-03-10T08:04:17.247Z,4.10
2023-03-10T08:05:15.031Z,5.38
2023-03-10T08:06:26.972Z,3.05
2023-03-10T08:07:25.852Z,5.50
2023-03-10T08:08:23.269Z,4.55
2023-03-10T08:09:19.865Z,4.25
2023-03-10T08:10:16.591Z,4.57
2023-03-10T08:11:13.356Z,6.45
2023-03-10T08:12:10.270Z,5.50
2023-03-10T08:13:06.855Z,4.60
2023-03-10T08:14:04.383Z,5.68
2023-03-10T08:15:01.146Z,6.45
2023-03-10T08:16:00.172Z,5.53
2023-03-10T08:16:57.698Z,7.20
2023-03-10T08:17:54.666Z,3.67
2023-03-10T08:18:53.747Z,5.93
2023-03-10T08:19:50.477Z,2.92
2023-03-10T08:20:47.032Z,6.35
2023-03-10T08:21:44.010Z,3.70
2023-03-10T08:22:40.635Z,3.17
2023-03-10T08:23:38.257Z,5.68
2023-03-10T08:24:36.634Z,4.60
2023-03-10T08:25:33.272Z,5.07
2023-03-10T08:26:29.853Z,5.70
2023-03-10T08:27:29.011Z,4.45
2023-03-10T08:28:28.863Z,6.10
2023-03-10T08:29:25.511Z,6.30
2023-03-10T08:30:22.172Z,5.57
2023-03-10T08:31:20.699Z,5.18
2023-03-10T08:32:18.009Z,6.10
2023-03-10T08:33:14.747Z,7.88
2023-03-10T08:34:11.352Z,9.98
2023-03-10T08:35:08.523Z,10.00
2023-03-10T08:36:09.630Z,12.48
2023-03-10T08:37:06.528Z,9.35
2023-03-10T08:38:04.341Z,7.88
2023-03-10T08:39:01.097Z,6.30
2023-03-10T08:39:58.949Z,9.80
2023-03-10T08:40:55.703Z,13.38
2023-03-10T08:41:54.677Z,5.97
2023-03-10T08:42:51.681Z,12.73
2023-03-10T08:43:50.629Z,9.73
2023-03-10T08:44:47.298Z,12.18
2023-03-10T08:45:43.970Z,9.25
2023-03-10T08:46:46.596Z,10.15
2023-03-10T08:47:44.095Z,9.75
2023-03-10T08:48:42.747Z,10.57
2023-03-10T08:49:41.293Z,7.82
2023-03-10T08:50:39.796Z,10.80
2023-03-10T08:51:36.645Z,13.77
2023-03-10T08:52:33.514Z,11.02
2023-03-10T08:53:30.278Z,11.88
2023-03-10T08:54:27.500Z,11.85
2023-03-10T08:55:24.879Z,12.98
2023-03-10T08:56:22.808Z,11.82
2023-03-10T08:57:19.434Z,9.18
2023-03-10T08:58:16.897Z,9.07
2023-03-10T08:59:13.650Z,12.93
2023-03-10T09:00:13.031Z,11.90
2023-03-10T09:01:12.225Z,10.95
2023-03-10T09:02:12.268Z,8.80
2023-03-10T09:03:15.390Z,10.13
2023-03-10T09:04:12.265Z,12.48
2023-03-10T09:05:10.491Z,9.88
2023-03-10T09:06:07.590Z,13.23
2023-03-10T09:07:04.289Z,12.77
2023-03-10T09:08:01.012Z,13.00
2023-03-10T09:08:57.923Z,14.63
2023-03-10T09:09:54.636Z,10.23
2023-03-10T09:10:51.304Z,10.57
2023-03-10T09:11:47.891Z,13.57
2023-03-10T09:12:44.580Z,11.02
2023-03-10T09:13:41.398Z,7.45
2023-03-10T09:14:38.563Z,14.00
2023-03-10T09:15:41.023Z,12.32
2023-03-10T09:17:38.256Z,11.25
2023-03-10T09:18:36.289Z,13.48
2023-03-10T09:19:33.137Z,9.90
2023-03-10T09:20:29.826Z,13.00
2023-03-10T09:21:31.949Z,12.80
2023-03-10T09:22:29.835Z,9.60
2023-03-10T09:23:26.479Z,11.77
2023-03-10T09:24:24.969Z,12.88
2023-03-10T09:25:22.417Z,10.02
2023-03-10T09:26:20.251Z,10.10
2023-03-10T09:27:16.887Z,10.88
2023-03-10T09:28:13.571Z,7.95
2023-03-10T09:29:10.412Z,9.02
2023-03-10T09:30:07.426Z,8.88
2023-03-10T09:31:05.981Z,12.27
2023-03-10T09:32:02.578Z,11.52
2023-03-10T09:32:59.222Z,9.05
2023-03-10T09:33:55.905Z,18.58
2023-03-10T09:34:52.465Z,10.43
2023-03-10T09:36:05.941Z,10.85
2023-03-10T09:37:03.682Z,9.25
2023-03-10T09:38:00.398Z,9.52
2023-03-10T09:38:58.241Z,7.00
2023-03-10T09:39:54.886Z,9.25
2023-03-10T09:41:20.734Z,12.00
2023-03-10T09:42:26.035Z,12.75
2023-03-10T09:43:38.616Z,9.80
2023-03-10T09:44:50.592Z,11.13
2023-03-10T09:46:15.088Z,13.65
2023-03-10T09:47:42.935Z,14.40
2023-03-10T09:48:45.568Z,13.63
2023-03-10T09:50:23.898Z,11.75
2023-03-10T09:51:27.663Z,12.55
2023-03-10T09:52:36.809Z,13.80
2023-03-10T09:53:56.960Z,11.50
2023-03-10T09:55:06.475Z,9.88
2023-03-10T09:56:15.738Z,8.82
2023-03-10T09:57:18.911Z,10.13
2023-03-10T09:58:26.592Z,12.02
2023-03-10T09:59:37.464Z,13.68
2023-03-10T10:00:39.141Z,12.65
2023-03-10T10:01:36.622Z,7.65
2023-03-10T10:02:39.197Z,9.40
2023-03-10T10:03:51.459Z,7.85
2023-03-10T10:04:53.580Z,11.20
2023-03-10T10:05:56.303Z,11.50
2023-03-10T10:06:53.096Z,9.85
2023-03-10T10:07:55.179Z,19.08
2023-03-10T10:09:05.530Z,17.00
2023-03-10T10:10:27.565Z,11.18
2023-03-10T10:11:24.363Z,10.15
2023-03-10T10:12:25.007Z,8.90
2023-03-10T10:13:25.264Z,8.02
2023-03-10T10:14:31.805Z,10.10
2023-03-10T10:15:34.928Z,6.90
2023-03-10T10:16:42.493Z,5.63
2023-03-10T10:17:55.024Z,5.97
2023-03-10T10:19:06.874Z,6.57
2023-03-10T10:20:07.165Z,7.78
2023-03-10T10:21:13.108Z,12.02
2023-03-10T10:22:15.782Z,6.05
2023-03-10T10:23:20.078Z,7.57
2023-03-10T10:24:18.259Z,7.32
2023-03-10T10:25:23.790Z,5.95
2023-03-10T10:26:26.476Z,9.80
2023-03-10T10:27:25.150Z,12.77
2023-03-10T10:28:32.928Z,9.68
2023-03-10T10:29:36.564Z,8.40
2023-03-10T10:30:35.022Z,10.70
2023-03-10T10:31:35.567Z,11.05
2023-03-10T10:32:32.776Z,8.05
2023-03-10T10:33:29.648Z,13.25
2023-03-10T10:34:26.253Z,7.70
2023-03-10T10:35:25.394Z,9.32
2023-03-10T10:36:25.296Z,9.88
2023-03-10T10:37:43.086Z,12.95
2023-03-10T10:38:39.755Z,14.82
2023-03-10T10:39:42.482Z,14.20
2023-03-10T10:40:59.427Z,13.07
2023-03-10T10:42:20.173Z,14.15
2023-03-10T10:43:18.978Z,7.80
2023-03-10T10:44:17.504Z,13.25
2023-03-10T10:45:35.387Z,8.02
2023-03-10T10:46:32.906Z,12.75
2023-03-10T10:47:37.291Z,11.88
2023-03-10T10:48:43.058Z,10.02
2023-03-10T10:49:39.762Z,10.45
2023-03-10T10:50:37.617Z,10.32
2023-03-10T10:51:37.585Z,7.65
2023-03-10T10:52:34.173Z,9.75
2023-03-10T10:53:35.536Z,15.23
2023-03-10T10:54:39.102Z,11.57
2023-03-10T10:55:35.832Z,12.48
2023-03-10T10:56:32.529Z,12.40
2023-03-10T10:57:35.333Z,11.50
2023-03-10T10:58:33.721Z,12.50
2023-03-10T10:59:35.507Z,17.02
2023-03-10T11:00:38.339Z,13.02
2023-03-10T11:01:48.598Z,19.38
2023-03-10T11:02:46.306Z,15.65
2023-03-10T11:03:46.789Z,17.02
2023-03-10T11:04:46.038Z,15.95
2023-03-10T11:05:42.737Z,20.30
2023-03-10T11:06:39.528Z,16.77
2023-03-10T11:07:36.138Z,22.35
2023-03-10T11:08:37.539Z,13.90
2023-03-10T11:09:34.115Z,17.38
2023-03-10T11:10:33.338Z,13.90
2023-03-10T11:11:48.318Z,18.23
2023-03-10T11:13:35.699Z,19.80
2023-03-10T11:14:49.802Z,18.90
2023-03-10T11:16:11.919Z,19.92
2023-03-10T11:17:42.997Z,20.67
2023-03-10T11:18:51.149Z,22.85
2023-03-10T11:19:57.241Z,26.48
2023-03-10T11:21:12.839Z,26.35
2023-03-10T11:22:27.914Z,24.13
2023-03-10T11:23:34.703Z,24.15
2023-03-10T11:24:36.398Z,22.23
2023-03-10T11:25:38.934Z,22.20
2023-03-10T11:27:49.820Z,19.63
2023-03-10T11:29:18.876Z,20.08
2023-03-10T11:30:22.824Z,18.23
2023-03-10T11:31:23.545Z,17.52
2023-03-10T11:32:38.535Z,20.05
2023-03-10T11:33:35.174Z,26.90
2023-03-10T11:34:35.967Z,23.23
2023-03-10T11:35:46.035Z,31.95
2023-03-10T11:36:58.083Z,21.60
2023-03-10T11:38:12.695Z,18.45
2023-03-10T11:39:28.935Z,23.35
2023-03-10T11:40:39.595Z,23.90
2023-03-10T11:41:39.791Z,24.02
2023-03-10T11:42:58.371Z,21.02
2023-03-10T11:43:57.821Z,23.58
2023-03-10T11:45:03.622Z,19.13
2023-03-10T11:46:21.430Z,13.27
2023-03-10T11:47:32.877Z,20.42
2023-03-10T11:49:06.460Z,14.93
2023-03-10T11:50:20.697Z,11.65
2023-03-10T11:51:39.501Z,9.75
2023-03-10T11:52:37.975Z,12.55
2023-03-10T11:53:34.503Z,11.00
2023-03-10T11:54:35.045Z,8.60
2023-03-10T11:55:32.310Z,6.70
2023-03-10T11:56:29.075Z,7.53
2023-03-10T11:57:30.853Z,10.25
2023-03-10T11:58:36.659Z,5.97
2023-03-10T11:59:40.013Z,4.70
2023-03-10T12:00:42.279Z,10.95
2023-03-10T12:02:06.115Z,7.82
2023-03-10T12:03:27.376Z,5.75
2023-03-10T12:04:27.435Z,6.75
2023-03-10T12:05:25.948Z,4.28
2023-03-10T12:06:37.629Z,5.78
2023-03-10T12:07:44.213Z,8.90
2023-03-10T12:08:44.014Z,6.60
2023-03-10T12:09:46.535Z,4.40
2023-03-10T12:10:43.862Z,5.55
2023-03-10T12:11:40.754Z,7.78
2023-03-10T12:12:39.934Z,12.02
2023-03-10T12:13:45.187Z,9.90
2023-03-10T12:14:44.475Z,13.30
2023-03-10T12:15:42.244Z,16.05
2023-03-10T12:16:42.027Z,10.23
2023-03-10T12:17:41.214Z,14.27
2023-03-10T12:18:37.859Z,11.68
2023-03-10T12:20:18.692Z,12.32
2023-03-10T12:21:32.322Z,11.43
2023-03-10T12:23:21.639Z,11.13
2023-03-10T12:24:46.925Z,18.27
2023-03-10T12:25:44.765Z,12.48
2023-03-10T12:26:42.259Z,13.18
2023-03-10T12:28:11.875Z,11.05
2023-03-10T12:29:20.960Z,9.32
2023-03-10T12:30:51.057Z,9.05
2023-03-10T12:31:51.342Z,6.78
2023-03-10T12:32:48.311Z,8.30
2023-03-10T12:33:47.361Z,5.70
2023-03-10T12:34:44.135Z,8.90
2023-03-10T12:35:47.952Z,5.70
2023-03-10T12:36:47.346Z,7.82
2023-03-10T12:37:43.924Z,11.95
2023-03-10T12:38:46.755Z,9.73
2023-03-10T12:39:44.428Z,7.25
2023-03-10T12:40:51.719Z,9.32
2023-03-10T12:41:50.728Z,5.78
2023-03-10T12:42:47.325Z,7.05
2023-03-10T12:43:50.783Z,7.53
2023-03-10T12:45:08.273Z,6.70
2023-03-10T12:46:09.103Z,8.13
2023-03-10T12:47:08.810Z,8.30
2023-03-10T12:48:13.850Z,5.75
2023-03-10T12:49:33.630Z,8.43
2023-03-10T12:50:41.693Z,10.00
2023-03-10T12:51:42.911Z,8.38
2023-03-10T12:52:45.026Z,7.03
2023-03-10T12:53:44.702Z,7.15
2023-03-10T12:54:47.301Z,5.72
2023-03-10T12:56:44.376Z,6.72
2023-03-10T12:58:03.292Z,8.68
2023-03-10T12:59:13.252Z,7.05
2023-03-10T13:00:30.224Z,8.85
2023-03-10T13:01:36.649Z,4.57
2023-03-10T13:02:48.941Z,7.28
2023-03-10T13:03:53.058Z,7.53
2023-03-10T13:04:50.963Z,6.32
2023-03-10T13:06:13.277Z,6.97
2023-03-10T13:07:15.389Z,5.20
2023-03-10T13:08:18.222Z,4.90
2023-03-10T13:09:38.937Z,6.82
2023-03-10T13:10:35.902Z,7.07
2023-03-10T13:11:43.116Z,8.13
2023-03-10T13:13:08.774Z,7.40
2023-03-10T13:14:17.823Z,6.60